Time;durP1;ratioP1;P1;durP2;ratioP2;P2;SDS_P1;SDS_P2;PMS_P1;PMS_P2;Temp;Humidity;BMP_temperature;BMP_pressure;BME280_temperature;BME280_humidity;BME280_pressure;Samples;Min_cycle;Max_cycle;Signal;HPM_P1;HPM_P2
2021/03/03 00:01:17;;;;;;;0.53;0.53;;;;;;;1.34;100.00;101701.19;5055229;28;20509;-54
2021/03/03 00:03:43;;;;;;;0.20;0.10;;;;;;;1.33;100.00;101700.28;5055157;28;20453;-54
2021/03/03 00:06:09;;;;;;;0.20;0.10;;;;;;;1.25;100.00;101699.19;5055890;28;20478;-54
2021/03/03 00:08:35;;;;;;;0.20;0.10;;;;;;;1.21;100.00;101702.50;5054843;28;20948;-54
2021/03/03 00:11:02;;;;;;;0.20;0.10;;;;;;;1.17;100.00;101703.28;5054939;28;20967;-54
2021/03/03 00:13:28;;;;;;;0.20;0.17;;;;;;;1.18;100.00;101699.81;5054792;28;20870;-54
2021/03/03 00:15:54;;;;;;;0.20;0.20;;;;;;;1.25;100.00;101709.66;5054498;28;20491;-54
2021/03/03 00:18:20;;;;;;;0.20;0.17;;;;;;;1.06;100.00;101708.16;5052878;28;20450;-54
2021/03/03 00:20:46;;;;;;;0.30;0.10;;;;;;;1.08;100.00;101708.19;5054878;28;20446;-54
2021/03/03 00:23:12;;;;;;;0.20;0.10;;;;;;;0.98;100.00;101711.38;5054613;28;20454;-54
2021/03/03 00:25:39;;;;;;;0.20;0.20;;;;;;;0.97;100.00;101705.25;5054896;28;20465;-54
2021/03/03 00:28:05;;;;;;;1.43;1.43;;;;;;;0.96;100.00;101705.16;5054996;28;20463;-54
2021/03/03 00:30:31;;;;;;;0.20;0.10;;;;;;;0.88;100.00;101716.28;5054829;28;20451;-54
2021/03/03 00:32:58;;;;;;;0.30;0.10;;;;;;;0.66;100.00;101710.25;5054598;28;20447;-54
2021/03/03 00:35:24;;;;;;;0.20;0.20;;;;;;;0.76;100.00;101700.19;5054562;28;20501;-54
2021/03/03 00:37:50;;;;;;;0.20;0.10;;;;;;;0.79;100.00;101700.28;5049544;28;20455;-54
2021/03/03 00:40:16;;;;;;;0.20;0.10;;;;;;;0.85;100.00;101703.09;5046098;28;20952;-54
2021/03/03 00:42:43;;;;;;;0.97;0.97;;;;;;;0.92;100.00;101698.94;5054237;28;21013;-54
2021/03/03 00:45:09;;;;;;;0.20;0.20;;;;;;;0.91;100.00;101702.41;5051186;28;20937;-54
2021/03/03 00:47:35;;;;;;;0.30;0.20;;;;;;;0.87;100.00;101708.41;5025149;28;20482;-54
2021/03/03 00:50:03;;;;;;;2.43;2.23;;;;;;;0.79;100.00;101699.38;5045788;28;20446;-54
2021/03/03 00:52:29;;;;;;;0.40;0.40;;;;;;;0.61;100.00;101707.50;5054067;28;20923;-54
2021/03/03 00:54:55;;;;;;;0.20;0.13;;;;;;;0.57;100.00;101700.41;5054365;28;20499;-54
2021/03/03 00:57:22;;;;;;;0.20;0.20;;;;;;;0.48;100.00;101697.44;5053874;28;20470;-54
2021/03/03 00:59:48;;;;;;;0.20;0.10;;;;;;;0.62;100.00;101697.94;5054241;28;20450;-54
2021/03/03 01:02:14;;;;;;;0.20;0.10;;;;;;;0.46;100.00;101691.28;5053990;28;20504;-54
2021/03/03 01:04:40;;;;;;;0.20;0.10;;;;;;;0.44;100.00;101698.19;5053848;28;20557;-54
2021/03/03 01:07:06;;;;;;;0.70;0.70;;;;;;;0.57;100.00;101700.41;5053644;28;20486;-54
2021/03/03 01:09:33;;;;;;;0.20;0.10;;;;;;;0.43;100.00;101705.16;5054109;28;20455;-54
2021/03/03 01:11:59;;;;;;;2.00;1.90;;;;;;;0.31;100.00;101707.31;5053837;28;20465;-54
2021/03/03 01:14:25;;;;;;;0.20;0.10;;;;;;;0.37;100.00;101698.78;5054122;28;20494;-54
2021/03/03 01:16:53;;;;;;;0.20;0.10;;;;;;;0.35;100.00;101690.00;5053481;28;20470;-54
2021/03/03 01:19:20;;;;;;;0.20;0.20;;;;;;;0.36;100.00;101691.78;5050557;28;20461;-54
2021/03/03 01:21:47;;;;;;;0.20;0.10;;;;;;;0.20;100.00;101696.47;5053737;28;20450;-54
2021/03/03 01:24:13;;;;;;;0.20;0.13;;;;;;;0.35;100.00;101698.75;5053550;28;20443;-54
2021/03/03 01:26:43;;;;;;;0.83;0.77;;;;;;;0.36;100.00;101697.00;5052989;28;20554;-54
2021/03/03 01:29:09;;;;;;;0.20;0.10;;;;;;;0.17;100.00;101695.47;5053571;28;20450;-54
2021/03/03 01:31:35;;;;;;;0.20;0.10;;;;;;;0.21;100.00;101697.34;5053279;28;20451;-54
2021/03/03 01:34:02;;;;;;;0.20;0.10;;;;;;;0.26;100.00;101681.00;5053214;28;20494;-54
2021/03/03 01:36:28;;;;;;;0.20;0.10;;;;;;;0.33;100.00;101689.06;5053300;28;20470;-54
2021/03/03 01:38:54;;;;;;;0.30;0.30;;;;;;;0.42;100.00;101687.69;5039991;28;20456;-54
2021/03/03 01:41:21;;;;;;;0.20;0.20;;;;;;;0.27;100.00;101690.66;5053558;28;20512;-54
2021/03/03 01:43:47;;;;;;;0.20;0.10;;;;;;;0.32;100.00;101695.13;5053193;28;20454;-54
2021/03/03 01:46:14;;;;;;;0.20;0.10;;;;;;;0.44;100.00;101690.34;5048186;28;20479;-54
2021/03/03 01:48:40;;;;;;;0.20;0.20;;;;;;;0.40;100.00;101691.03;5044275;28;20480;-54
2021/03/03 01:51:07;;;;;;;0.20;0.10;;;;;;;0.44;100.00;101691.22;5053000;28;20960;-54
2021/03/03 01:53:33;;;;;;;0.20;0.10;;;;;;;0.32;100.00;101684.69;5052823;28;20504;-54
2021/03/03 01:55:59;;;;;;;0.20;0.10;;;;;;;0.35;100.00;101687.38;5053005;28;20877;-54
2021/03/03 01:58:26;;;;;;;0.20;0.10;;;;;;;0.27;100.00;101684.50;5052823;28;20446;-54
2021/03/03 02:00:57;;;;;;;0.20;0.20;;;;;;;0.24;100.00;101684.38;5052910;28;20443;-55
2021/03/03 02:03:24;;;;;;;0.20;0.10;;;;;;;0.33;100.00;101679.50;5052624;28;20458;-54
2021/03/03 02:05:54;;;;;;;0.20;0.10;;;;;;;0.22;100.00;101680.84;5052664;28;20545;-54
2021/03/03 02:08:28;;;;;;;0.30;0.30;;;;;;;0.40;100.00;101672.75;5052776;28;20455;-54
2021/03/03 02:11:04;;;;;;;0.20;0.10;;;;;;;0.34;100.00;101657.75;5052969;28;20499;-54
2021/03/03 02:13:34;;;;;;;0.20;0.10;;;;;;;0.42;100.00;101652.78;5052352;28;20451;-54
2021/03/03 02:16:04;;;;;;;0.30;0.30;;;;;;;0.59;100.00;101656.84;5052775;28;20552;-54
2021/03/03 02:18:32;;;;;;;0.20;0.10;;;;;;;0.72;100.00;101648.59;5049607;28;20459;-54
2021/03/03 02:21:35;;;;;;;0.20;0.10;;;;;;;0.80;100.00;101654.94;5052674;28;20455;-54
2021/03/03 02:24:07;;;;;;;0.20;0.10;;;;;;;0.85;100.00;101645.53;5032999;28;20451;-54
2021/03/03 02:26:35;;;;;;;0.40;0.40;;;;;;;0.78;100.00;101651.38;5052229;28;20467;-54
2021/03/03 02:29:04;;;;;;;3.50;2.00;;;;;;;0.70;100.00;101652.00;5052632;28;20461;-54
2021/03/03 02:31:38;;;;;;;0.30;0.20;;;;;;;0.53;100.00;101657.53;5052433;28;20529;-54
2021/03/03 02:34:06;;;;;;;0.20;0.10;;;;;;;0.39;100.00;101648.31;5052355;28;20978;-54
2021/03/03 02:36:34;;;;;;;0.20;0.10;;;;;;;0.45;100.00;101648.53;5052052;28;20471;-54
2021/03/03 02:39:01;;;;;;;0.20;0.10;;;;;;;0.48;100.00;101650.38;5038988;28;20454;-54
2021/03/03 02:41:29;;;;;;;0.20;0.10;;;;;;;0.48;100.00;101645.13;5052418;28;20454;-54
2021/03/03 02:43:58;;;;;;;4.63;1.03;;;;;;;0.44;100.00;101640.66;5052218;28;20450;-54
2021/03/03 02:46:25;;;;;;;0.20;0.20;;;;;;;0.59;100.00;101642.06;5047526;28;20470;-54
2021/03/03 02:48:51;;;;;;;0.20;0.10;;;;;;;0.41;100.00;101646.66;5043643;28;20440;-54
2021/03/03 02:51:18;;;;;;;0.20;0.10;;;;;;;0.45;100.00;101651.16;5052094;28;20940;-54
2021/03/03 02:53:44;;;;;;;0.20;0.10;;;;;;;0.54;100.00;101648.84;5052173;28;20477;-54
2021/03/03 02:56:10;;;;;;;0.20;0.20;;;;;;;0.42;100.00;101642.34;5052257;28;20494;-54
2021/03/03 02:58:37;;;;;;;0.20;0.17;;;;;;;0.50;100.00;101653.91;5052071;28;20455;-54
2021/03/03 03:01:08;;;;;;;0.20;0.10;;;;;;;0.42;100.00;101645.84;5050902;28;20455;-54
2021/03/03 03:03:46;;;;;;;0.20;0.10;;;;;;;0.29;100.00;101648.84;5051843;28;20443;-54
2021/03/03 03:06:28;;;;;;;0.70;0.70;;;;;;;0.29;100.00;101644.50;5050774;28;20935;-54
2021/03/03 03:09:02;;;;;;;0.20;0.10;;;;;;;0.40;100.00;101643.97;5027284;28;20528;-54
2021/03/03 03:11:30;;;;;;;0.20;0.10;;;;;;;0.25;100.00;101640.00;5051880;28;20456;-54
2021/03/03 03:14:06;;;;;;;0.20;0.10;;;;;;;0.23;100.00;101641.66;5051911;28;20985;-54
2021/03/03 03:16:34;;;;;;;0.20;0.10;;;;;;;0.24;100.00;101632.09;5051860;28;21067;-54
2021/03/03 03:19:05;;;;;;;1.60;0.77;;;;;;;0.38;100.00;101630.84;5050208;28;20457;-54
2021/03/03 03:21:36;;;;;;;0.20;0.10;;;;;;;0.35;100.00;101640.31;5051931;28;20447;-54
2021/03/03 03:24:03;;;;;;;2.67;1.40;;;;;;;0.61;100.00;101649.06;5052489;28;20446;-54
2021/03/03 03:26:31;;;;;;;0.20;0.10;;;;;;;0.54;100.00;101645.34;5051491;28;20474;-54
2021/03/03 03:28:58;;;;;;;0.20;0.10;;;;;;;0.39;100.00;101636.97;5052120;28;20451;-54
2021/03/03 03:31:24;;;;;;;0.20;0.10;;;;;;;0.44;100.00;101632.81;5051869;28;20496;-54
2021/03/03 03:33:52;;;;;;;0.20;0.10;;;;;;;0.40;100.00;101636.13;5051775;28;20955;-54
2021/03/03 03:36:18;;;;;;;0.20;0.10;;;;;;;0.49;100.00;101642.56;5051432;28;20498;-54
2021/03/03 03:38:45;;;;;;;0.20;0.20;;;;;;;0.45;100.00;101638.09;5039510;28;20510;-54
2021/03/03 03:41:13;;;;;;;0.20;0.17;;;;;;;0.49;100.00;101632.09;5050395;28;20447;-54
2021/03/03 03:43:40;;;;;;;0.30;0.30;;;;;;;0.54;100.00;101627.91;5050676;28;20451;-54
2021/03/03 03:46:08;;;;;;;0.20;0.10;;;;;;;0.70;100.00;101620.59;5046244;28;20482;-54
2021/03/03 03:48:35;;;;;;;0.20;0.20;;;;;;;0.55;100.00;101618.38;5043355;28;21018;-54
2021/03/03 03:51:05;;;;;;;0.20;0.10;;;;;;;0.77;100.00;101627.78;5052752;28;20450;-54
2021/03/03 03:53:32;;;;;;;8.23;2.37;;;;;;;0.69;100.00;101632.78;5055019;28;20866;-54
2021/03/03 03:55:59;;;;;;;0.20;0.10;;;;;;;0.77;100.00;101631.28;5028891;28;20502;-54
2021/03/03 03:58:25;;;;;;;0.20;0.10;;;;;;;0.66;100.00;101629.16;5055241;28;20454;-54
2021/03/03 04:00:52;;;;;;;0.20;0.10;;;;;;;0.62;100.00;101643.00;5055340;28;20482;-54
2021/03/03 04:03:18;;;;;;;0.20;0.10;;;;;;;0.53;100.00;101646.16;5055122;28;20797;-54
2021/03/03 04:05:45;;;;;;;0.20;0.20;;;;;;;0.47;100.00;101641.63;5054892;28;20467;-54
2021/03/03 04:08:11;;;;;;;0.20;0.20;;;;;;;0.59;100.00;101647.28;5054773;28;20446;-54
2021/03/03 04:10:37;;;;;;;0.20;0.10;;;;;;;0.42;100.00;101635.38;5055199;28;20458;-54
2021/03/03 04:13:04;;;;;;;0.67;0.67;;;;;;;0.54;100.00;101637.47;5055174;28;20450;-54
2021/03/03 04:15:30;;;;;;;0.20;0.10;;;;;;;0.53;100.00;101643.56;5054790;28;20513;-54
2021/03/03 04:17:56;;;;;;;0.20;0.10;;;;;;;0.48;100.00;101647.75;5052648;28;20462;-54
2021/03/03 04:20:22;;;;;;;0.70;0.70;;;;;;;0.50;100.00;101644.34;5054788;28;20451;-54
2021/03/03 04:22:49;;;;;;;0.20;0.20;;;;;;;0.56;100.00;101641.97;5054549;28;20458;-54
2021/03/03 04:25:16;;;;;;;0.20;0.20;;;;;;;0.55;100.00;101644.53;5054875;28;20443;-54
2021/03/03 04:27:43;;;;;;;0.20;0.10;;;;;;;0.50;100.00;101644.34;5054661;28;20529;-54
2021/03/03 04:30:13;;;;;;;0.20;0.10;;;;;;;0.40;100.00;101646.59;5054831;28;20455;-50
2021/03/03 04:32:39;;;;;;;0.20;0.13;;;;;;;0.39;100.00;101647.44;5054599;28;20451;-50
2021/03/03 04:35:07;;;;;;;0.20;0.10;;;;;;;0.33;100.00;101634.16;5054530;28;20584;-50
2021/03/03 04:37:34;;;;;;;0.20;0.10;;;;;;;0.40;100.00;101639.63;5052170;28;20474;-51
2021/03/03 04:40:00;;;;;;;0.40;0.40;;;;;;;0.36;100.00;101637.75;5035241;28;20470;-52
2021/03/03 04:42:26;;;;;;;0.20;0.10;;;;;;;0.38;100.00;101636.06;5050763;28;20507;-52
2021/03/03 04:44:53;;;;;;;2.20;2.10;;;;;;;0.34;100.00;101642.06;5053610;28;20454;-52
2021/03/03 04:47:19;;;;;;;0.20;0.10;;;;;;;0.26;100.00;101644.38;5050613;28;20550;-52
2021/03/03 04:49:45;;;;;;;1.17;1.17;;;;;;;0.23;100.00;101640.78;5045425;28;20454;-51
2021/03/03 04:52:11;;;;;;;0.30;0.20;;;;;;;0.18;100.00;101648.47;5054307;28;20443;-51
2021/03/03 04:54:38;;;;;;;0.20;0.10;;;;;;;0.16;100.00;101649.25;5054213;28;20517;-52
2021/03/03 04:57:04;;;;;;;0.20;0.13;;;;;;;0.27;100.00;101650.50;5053943;28;20473;-52
2021/03/03 04:59:31;;;;;;;0.20;0.10;;;;;;;0.21;100.00;101645.97;5051762;28;20466;-51
2021/03/03 05:01:57;;;;;;;0.20;0.10;;;;;;;0.18;100.00;101644.97;5037974;28;20455;-52
2021/03/03 05:04:24;;;;;;;0.20;0.10;;;;;;;0.27;100.00;101647.88;5053895;28;20454;-52
2021/03/03 05:06:50;;;;;;;0.20;0.10;;;;;;;0.15;100.00;101650.09;5053786;28;20975;-52
2021/03/03 05:09:16;;;;;;;0.20;0.10;;;;;;;0.21;100.00;101651.19;5054069;28;20454;-51
2021/03/03 05:11:43;;;;;;;0.20;0.10;;;;;;;0.21;100.00;101645.97;5053842;28;20454;-51
2021/03/03 05:14:09;;;;;;;0.67;0.67;;;;;;;0.33;100.00;101642.88;5053739;28;20447;-52
2021/03/03 05:16:35;;;;;;;0.20;0.10;;;;;;;0.22;100.00;101652.06;5053567;28;20494;-52
2021/03/03 05:19:01;;;;;;;0.20;0.10;;;;;;;0.07;100.00;101633.25;5041780;28;20448;-52
2021/03/03 05:21:27;;;;;;;0.20;0.20;;;;;;;0.10;100.00;101636.84;5042576;28;20450;-52
2021/03/03 05:23:54;;;;;;;0.20;0.10;;;;;;;0.46;100.00;101636.34;5053615;28;20455;-51
2021/03/03 05:26:20;;;;;;;0.20;0.10;;;;;;;0.27;100.00;101635.72;5053492;28;20812;-51
2021/03/03 05:28:46;;;;;;;0.20;0.20;;;;;;;0.31;100.00;101635.84;5053584;28;20504;-51
2021/03/03 05:31:13;;;;;;;0.30;0.20;;;;;;;0.27;100.00;101627.88;5053386;28;20450;-51
2021/03/03 05:33:56;;;;;;;1.80;1.70;;;;;;;0.21;100.00;101632.00;5053576;28;20817;-51
2021/03/03 05:36:22;;;;;;;0.20;0.20;;;;;;;0.17;100.00;101624.91;5053011;28;20552;-51
2021/03/03 05:38:48;;;;;;;0.20;0.10;;;;;;;0.11;100.00;101632.50;5040742;28;20457;-51
2021/03/03 05:41:15;;;;;;;0.20;0.10;;;;;;;0.25;100.00;101640.00;5052955;28;20831;-51
2021/03/03 05:43:41;;;;;;;0.20;0.10;;;;;;;0.17;100.00;101641.47;5053147;28;20459;-51
2021/03/03 05:46:07;;;;;;;0.20;0.10;;;;;;;0.11;100.00;101637.72;5048200;28;20479;-51
2021/03/03 05:48:41;;;;;;;0.20;0.10;;;;;;;0.07;100.00;101630.63;5044744;28;20444;-51
2021/03/03 05:51:09;;;;;;;0.20;0.10;;;;;;;0.14;100.00;101627.41;5028544;28;20858;-51
2021/03/03 05:53:36;;;;;;;0.20;0.10;;;;;;;0.06;100.00;101621.00;5052880;28;20447;-51
2021/03/03 05:56:05;;;;;;;0.20;0.10;;;;;;;0.07;100.00;101639.34;5052939;28;20490;-51
2021/03/03 05:58:33;;;;;;;0.20;0.10;;;;;;;0.08;100.00;101630.69;5052663;28;20879;-51
2021/03/03 06:01:01;;;;;;;0.20;0.10;;;;;;;0.28;100.00;101636.63;5052771;28;20875;-51
2021/03/03 06:03:28;;;;;;;0.20;0.10;;;;;;;0.21;100.00;101639.84;5052525;28;20481;-51
2021/03/03 06:05:54;;;;;;;0.30;0.10;;;;;;;0.26;100.00;101641.78;5052850;28;20473;-51
2021/03/03 06:08:25;;;;;;;0.20;0.10;;;;;;;0.33;100.00;101640.28;5052597;28;20509;-51
2021/03/03 06:10:52;;;;;;;0.20;0.10;;;;;;;0.29;100.00;101635.78;5052606;28;20947;-55
2021/03/03 06:13:19;;;;;;;0.20;0.10;;;;;;;0.33;100.00;101634.16;5051935;28;20459;-51
2021/03/03 06:15:46;;;;;;;0.20;0.10;;;;;;;0.35;100.00;101630.75;5052577;28;20490;-51
2021/03/03 06:18:17;;;;;;;0.20;0.10;;;;;;;0.38;100.00;101640.41;5050339;28;20458;-52
2021/03/03 06:20:48;;;;;;;0.20;0.10;;;;;;;0.43;100.00;101637.16;5052450;28;21002;-52
2021/03/03 06:23:28;;;;;;;0.20;0.10;;;;;;;0.40;100.00;101638.75;5052328;28;20447;-51
2021/03/03 06:26:03;;;;;;;0.20;0.10;;;;;;;0.47;100.00;101639.03;5052276;28;20462;-51
2021/03/03 06:28:35;;;;;;;0.20;0.10;;;;;;;0.44;100.00;101624.97;5028484;28;20504;-51
2021/03/03 06:31:22;;;;;;;0.20;0.10;;;;;;;0.50;100.00;101635.63;5052113;28;20498;-51
2021/03/03 06:33:51;;;;;;;0.20;0.10;;;;;;;0.41;100.00;101636.22;5052311;28;20457;-51
2021/03/03 06:36:28;;;;;;;0.20;0.20;;;;;;;0.50;100.00;101635.63;5051831;28;20490;-51
2021/03/03 06:38:54;;;;;;;0.20;0.20;;;;;;;0.53;100.00;101646.16;5038818;28;20448;-51
2021/03/03 06:41:20;;;;;;;0.20;0.10;;;;;;;0.56;100.00;101635.84;5052314;28;20457;-51
2021/03/03 06:43:56;;;;;;;0.20;0.10;;;;;;;0.69;100.00;101648.50;5052138;28;20589;-52
2021/03/03 06:46:23;;;;;;;0.20;0.10;;;;;;;0.75;100.00;101645.19;5047226;28;20531;-51
2021/03/03 06:48:50;;;;;;;0.20;0.10;;;;;;;0.80;100.00;101641.84;5043282;28;20983;-51
2021/03/03 06:51:27;;;;;;;0.20;0.10;;;;;;;0.71;100.00;101644.19;5052267;28;20446;-51
2021/03/03 06:53:58;;;;;;;0.20;0.10;;;;;;;0.82;100.00;101648.06;5051957;28;20454;-51
2021/03/03 06:56:40;;;;;;;0.20;0.10;;;;;;;0.98;100.00;101651.16;5052107;28;20569;-52
2021/03/03 06:59:30;;;;;;;0.20;0.10;;;;;;;1.00;100.00;101639.00;5025243;28;20459;-52
2021/03/03 07:02:17;;;;;;;0.20;0.10;;;;;;;1.07;100.00;101640.97;5051738;28;20953;-52
2021/03/03 07:05:03;;;;;;;0.20;0.10;;;;;;;1.05;100.00;101638.31;5052010;28;20886;-51
2021/03/03 07:07:29;;;;;;;0.20;0.10;;;;;;;1.10;100.00;101641.09;5051828;28;20897;-51
2021/03/03 07:10:00;;;;;;;0.20;0.10;;;;;;;1.19;100.00;101630.88;5052029;28;20508;-51
2021/03/03 07:12:31;;;;;;;0.30;0.30;;;;;;;1.34;100.00;101644.44;5051877;28;20446;-52
2021/03/03 07:15:08;;;;;;;0.20;0.20;;;;;;;1.60;100.00;101639.09;5051736;28;20490;-52
2021/03/03 07:17:43;;;;;;;0.20;0.10;;;;;;;1.70;100.00;101643.78;5051618;28;20466;-52
2021/03/03 07:20:14;;;;;;;0.20;0.10;;;;;;;1.59;100.00;101645.19;5026097;28;20442;-52
2021/03/03 07:22:42;;;;;;;0.20;0.10;;;;;;;1.64;100.00;101644.47;5051906;28;20906;-51
2021/03/03 07:25:12;;;;;;;1.70;1.70;;;;;;;1.62;100.00;101638.31;5051854;28;20443;-52
2021/03/03 07:27:40;;;;;;;0.20;0.10;;;;;;;1.73;100.00;101633.38;5055338;28;20870;-51
2021/03/03 07:30:17;;;;;;;2.33;1.13;;;;;;;1.58;100.00;101635.56;5055519;28;20919;-52
2021/03/03 07:32:44;;;;;;;0.30;0.30;;;;;;;1.60;100.00;101640.00;5055650;28;20932;-51
2021/03/03 07:35:26;;;;;;;0.20;0.20;;;;;;;1.76;100.00;101651.81;5055484;28;20517;-51
2021/03/03 07:37:54;;;;;;;0.20;0.10;;;;;;;1.96;100.00;101655.03;5050560;28;20451;-51
2021/03/03 07:40:25;;;;;;;0.20;0.10;;;;;;;2.12;100.00;101651.09;5047675;28;20812;-52
2021/03/03 07:42:57;;;;;;;0.20;0.10;;;;;;;2.28;100.00;101650.66;5055307;28;20474;-52
2021/03/03 07:45:34;;;;;;;3.70;2.10;;;;;;;2.20;100.00;101649.56;5050522;28;20447;-52
2021/03/03 07:48:03;;;;;;;0.27;0.17;;;;;;;2.25;100.00;101642.72;5028172;28;20451;-52
2021/03/03 07:50:29;;;;;;;0.20;0.10;;;;;;;2.31;100.00;101645.47;5050379;28;20496;-52
2021/03/03 07:52:56;;;;;;;0.20;0.20;;;;;;;2.41;100.00;101641.38;5055392;28;20964;-52
2021/03/03 07:55:26;;;;;;;0.20;0.10;;;;;;;2.45;100.00;101640.59;5054823;28;20490;-52
2021/03/03 07:57:56;;;;;;;1.03;1.03;;;;;;;2.42;100.00;101643.16;5055373;28;20451;-52
2021/03/03 08:00:25;;;;;;;0.20;0.20;;;;;;;2.50;100.00;101639.88;5054988;28;20446;-51
2021/03/03 08:02:55;;;;;;;0.20;0.10;;;;;;;2.51;100.00;101646.91;5055113;28;20936;-52
2021/03/03 08:05:30;;;;;;;0.40;0.40;;;;;;;2.54;100.00;101644.38;5054875;28;20944;-52
2021/03/03 08:08:17;;;;;;;0.53;0.53;;;;;;;2.63;100.00;101646.34;5054940;28;20902;-52
2021/03/03 08:10:44;;;;;;;0.20;0.10;;;;;;;2.77;100.00;101662.44;5031492;28;20454;-52
2021/03/03 08:13:16;;;;;;;0.30;0.20;;;;;;;2.78;100.00;101658.97;5053724;28;20545;-52
2021/03/03 08:15:56;;;;;;;0.30;0.10;;;;;;;2.69;100.00;101649.13;5054668;28;20490;-52
2021/03/03 08:18:22;;;;;;;0.20;0.10;;;;;;;2.85;100.00;101650.38;5052768;28;20888;-52
2021/03/03 08:20:51;;;;;;;0.20;0.20;;;;;;;2.90;100.00;101654.03;5054864;28;20451;-52
2021/03/03 08:23:34;;;;;;;0.20;0.20;;;;;;;2.88;100.00;101650.47;5054960;28;20443;-52
2021/03/03 08:26:16;;;;;;;1.07;0.80;;;;;;;2.78;100.00;101646.72;5054551;28;20885;-52
2021/03/03 08:28:42;;;;;;;0.20;0.10;;;;;;;2.92;100.00;101647.06;5054494;28;20802;-51
2021/03/03 08:31:08;;;;;;;1.80;1.80;;;;;;;2.98;100.00;101640.22;5054644;28;20455;-52
2021/03/03 08:33:39;;;;;;;0.97;0.97;;;;;;;3.20;100.00;101648.63;5054696;28;20457;-52
2021/03/03 08:36:17;;;;;;;0.20;0.10;;;;;;;3.28;100.00;101649.66;5054110;28;20518;-52
2021/03/03 08:39:09;;;;;;;0.20;0.10;;;;;;;3.63;100.00;101645.19;5042400;28;20838;-52
2021/03/03 08:41:38;;;;;;;0.20;0.13;;;;;;;3.52;100.00;101646.69;5032304;28;20604;-52
2021/03/03 08:44:12;;;;;;;0.20;0.10;;;;;;;3.52;100.00;101644.97;5054488;28;20501;-52
2021/03/03 08:46:39;;;;;;;0.20;0.10;;;;;;;3.58;100.00;101652.09;5049223;28;21017;-52
2021/03/03 08:49:05;;;;;;;0.30;0.20;;;;;;;3.66;100.00;101647.00;5045553;28;20454;-52
2021/03/03 08:51:36;;;;;;;0.20;0.20;;;;;;;3.66;100.00;101634.75;5053991;28;20451;-52
2021/03/03 08:54:10;;;;;;;0.20;0.10;;;;;;;3.71;100.00;101629.59;5054231;28;20473;-52
2021/03/03 08:56:45;;;;;;;0.20;0.20;;;;;;;3.93;100.00;101631.78;5053854;28;20565;-52
2021/03/03 08:59:11;;;;;;;0.30;0.20;;;;;;;4.05;100.00;101623.25;5027654;28;20450;-52
2021/03/03 09:02:00;;;;;;;0.20;0.10;;;;;;;4.15;100.00;101625.22;5053909;28;20530;-52
2021/03/03 09:04:28;;;;;;;0.20;0.10;;;;;;;4.15;100.00;101625.22;5053952;28;20447;-52
2021/03/03 09:07:00;;;;;;;1.27;1.27;;;;;;;4.28;100.00;101618.44;5053853;28;20537;-52
2021/03/03 09:09:33;;;;;;;0.20;0.17;;;;;;;4.35;100.00;101620.31;5052829;28;20447;-52
2021/03/03 09:12:08;;;;;;;0.20;0.17;;;;;;;4.62;100.00;101609.38;5053675;28;20454;-52
2021/03/03 09:14:36;;;;;;;0.20;0.10;;;;;;;4.72;100.00;101606.03;5053685;28;20446;-52
2021/03/03 09:17:09;;;;;;;0.30;0.20;;;;;;;4.78;100.00;101605.25;5053880;28;20883;-52
2021/03/03 09:19:36;;;;;;;0.40;0.40;;;;;;;4.73;100.00;101603.44;5050876;28;20447;-52
2021/03/03 09:22:18;;;;;;;0.80;0.80;;;;;;;4.84;100.00;101606.25;5053616;28;20840;-52
2021/03/03 09:24:50;;;;;;;0.30;0.30;;;;;;;4.96;100.00;101603.81;5053348;28;20447;-52
2021/03/03 09:27:16;;;;;;;0.30;0.20;;;;;;;4.94;100.00;101608.19;5052237;28;20836;-52
2021/03/03 09:29:43;;;;;;;0.20;0.10;;;;;;;5.15;100.00;101601.44;5053463;28;20451;-52
2021/03/03 09:32:21;;;;;;;0.20;0.10;;;;;;;5.29;100.00;101605.16;5053534;28;20453;-52
2021/03/03 09:34:52;;;;;;;0.30;0.20;;;;;;;5.54;100.00;101602.00;5053080;28;20967;-52
2021/03/03 09:37:20;;;;;;;0.30;0.30;;;;;;;5.53;100.00;101594.97;5052708;28;20496;-52
2021/03/03 09:39:57;;;;;;;0.30;0.20;;;;;;;5.86;100.00;101601.50;5040822;28;20486;-53
2021/03/03 09:42:25;;;;;;;0.27;0.20;;;;;;;5.59;100.00;101597.66;5053364;28;20451;-53
2021/03/03 09:44:52;;;;;;;1.70;1.37;;;;;;;5.62;100.00;101594.19;5052600;28;20451;-52
2021/03/03 09:47:26;;;;;;;0.30;0.20;;;;;;;5.87;100.00;101593.59;5049138;28;20947;-53
2021/03/03 09:49:59;;;;;;;3.40;1.90;;;;;;;6.35;100.00;101588.88;5044351;28;20470;-53
2021/03/03 09:52:34;;;;;;;0.30;0.20;;;;;;;6.36;100.00;101583.59;5053050;28;20447;-53
2021/03/03 09:55:00;;;;;;;0.30;0.10;;;;;;;6.73;100.00;101592.75;5052853;28;20494;-53
2021/03/03 09:57:27;;;;;;;3.50;3.23;;;;;;;6.72;100.00;101590.09;5052865;28;20467;-53
2021/03/03 09:59:56;;;;;;;0.30;0.20;;;;;;;6.80;99.35;101583.09;5051884;28;20565;-53
2021/03/03 10:02:25;;;;;;;0.30;0.20;;;;;;;6.77;98.39;101585.72;5052639;28;20542;-53
2021/03/03 10:04:53;;;;;;;0.30;0.20;;;;;;;6.75;98.60;101579.53;5052571;28;20990;-53
2021/03/03 10:07:23;;;;;;;0.30;0.20;;;;;;;6.84;99.30;101569.03;5052724;28;20470;-53
2021/03/03 10:09:57;;;;;;;0.70;0.70;;;;;;;6.92;99.90;101567.34;5052651;28;20453;-52
2021/03/03 10:12:26;;;;;;;0.63;0.63;;;;;;;7.04;98.47;101569.19;5052602;28;20461;-53
2021/03/03 10:15:12;;;;;;;0.30;0.20;;;;;;;7.15;97.83;101564.84;5052245;28;20446;-53
2021/03/03 10:17:53;;;;;;;0.50;0.50;;;;;;;7.39;97.33;101564.06;5051708;28;20478;-53
2021/03/03 10:20:39;;;;;;;0.40;0.40;;;;;;;7.85;95.79;101570.47;5027319;28;20829;-52
2021/03/03 10:23:14;;;;;;;0.30;0.20;;;;;;;7.72;94.90;101563.34;5052314;28;20943;-53
2021/03/03 10:26:06;;;;;;;0.30;0.20;;;;;;;7.87;94.61;101565.16;5052664;28;20541;-53
2021/03/03 10:28:34;;;;;;;0.30;0.20;;;;;;;8.25;93.24;101567.91;5052424;28;20454;-52
2021/03/03 10:31:02;;;;;;;2.10;1.90;;;;;;;8.36;93.14;101570.56;5052296;28;20447;-53
2021/03/03 10:33:33;;;;;;;0.30;0.20;;;;;;;8.26;93.87;101561.72;5052243;28;20453;-53
2021/03/03 10:36:04;;;;;;;0.30;0.20;;;;;;;8.39;93.92;101560.91;5052226;28;20494;-53
2021/03/03 10:38:33;;;;;;;2.83;2.37;;;;;;;8.74;93.33;101562.66;5042259;28;20547;-52
2021/03/03 10:41:02;;;;;;;0.77;0.70;;;;;;;8.70;93.67;101564.44;5036468;28;20459;-53
2021/03/03 10:43:30;;;;;;;1.60;1.50;;;;;;;8.66;93.96;101559.13;5052314;28;20447;-53
2021/03/03 10:46:14;;;;;;;0.30;0.20;;;;;;;8.82;92.91;101558.25;5047328;28;20475;-53
2021/03/03 10:48:41;;;;;;;0.40;0.40;;;;;;;8.73;93.87;101558.22;5043380;28;20915;-53
2021/03/03 10:51:09;;;;;;;0.30;0.20;;;;;;;8.68;94.75;101552.94;5052277;28;20500;-53
2021/03/03 10:53:50;;;;;;;0.30;0.20;;;;;;;9.26;93.52;101555.50;5051896;28;20454;-53
2021/03/03 10:56:30;;;;;;;0.30;0.20;;;;;;;9.29;92.67;101558.13;5052139;28;20543;-53
2021/03/03 10:58:58;;;;;;;0.30;0.20;;;;;;;9.58;91.58;101557.16;5052183;28;20453;-53
2021/03/03 11:01:40;;;;;;;0.30;0.20;;;;;;;9.20;91.44;101552.88;5056384;28;20450;-53
2021/03/03 11:04:07;;;;;;;0.30;0.20;;;;;;;9.43;91.81;101544.81;5056206;28;20504;-52
2021/03/03 11:06:33;;;;;;;0.30;0.20;;;;;;;9.58;91.35;101543.88;5056624;28;20472;-52
2021/03/03 11:09:02;;;;;;;0.53;0.53;;;;;;;9.63;90.83;101550.06;5055991;28;20824;-53
2021/03/03 11:11:29;;;;;;;0.30;0.20;;;;;;;9.69;90.03;101545.59;5056015;28;20443;-53
2021/03/03 11:13:55;;;;;;;0.30;0.20;;;;;;;9.93;89.30;101538.41;5056264;28;20507;-53
2021/03/03 11:16:21;;;;;;;0.30;0.20;;;;;;;10.28;88.97;101535.53;5055865;28;20502;-53
2021/03/03 11:18:49;;;;;;;0.50;0.50;;;;;;;10.29;87.75;101530.22;5053102;28;20450;-53
2021/03/03 11:21:15;;;;;;;0.30;0.20;;;;;;;10.34;87.06;101527.53;5038610;28;20456;-53
2021/03/03 11:23:44;;;;;;;0.40;0.30;;;;;;;10.28;86.99;101522.25;5055589;28;20504;-53
2021/03/03 11:26:10;;;;;;;0.30;0.20;;;;;;;10.39;87.15;101507.97;5055642;28;20462;-56
2021/03/03 11:28:36;;;;;;;0.40;0.40;;;;;;;10.71;85.50;101516.59;5055913;28;20454;-53
2021/03/03 11:31:04;;;;;;;0.30;0.20;;;;;;;10.71;83.99;101513.94;5055663;28;20454;-53
2021/03/03 11:33:31;;;;;;;0.30;0.20;;;;;;;10.89;83.63;101503.97;5055803;28;20880;-53
2021/03/03 11:35:57;;;;;;;0.30;0.20;;;;;;;11.13;82.50;101499.31;5055428;28;20498;-53
2021/03/03 11:38:27;;;;;;;1.23;1.23;;;;;;;11.24;82.02;101500.94;5045554;28;21020;-53